Onemo, Virginia
Current Conditions -  °F | °C
As of 7:15 AM on Friday 19 Dec 2014 (Local Time) from KW75 Reporting Station
Scattered Clouds Scattered Clouds  
Wind Chill: 28°   Ceiling: Unl
Heat Index: 33°   Visibility: 10mi
Dew Point: 25°   Wind: 6mph
Humidity: 72%   Direction: 320°NW
Pressure: 30.15"   Gusts: NA
Location:  37.4°N, 76.27°W
Report Text: KW75 191215Z AUTO 32005KT 10SM SCT090 01/M04 A3015 RMK AO1 T00081038
Loading
Personal Weather Stations






























Interactive Weather Map New forecast layout! Learn more

10-Day Weather Forecast

Advertisements
Track Severe Weather on mobile